• Join FlightAware (Why Join?)
  • Login
  • US Flag 
09:04AM EDT


 

Airport Tracker/Info


-or-


 

Live Flight TrackerFlight Track Log ✈ AWE648 ✈ 06-May-2013 ✈ KSFO - KPHL

Flight Track Log - Related Links

Times and Time Zones

All times are in EDT time to prevent confusion due to time zone crossing. See the AWE648 flight status page for this flight to view local times or setup timezone preferences in your user account.

Time Position Orientation Groundspeed Altitude Reporting Facility
EDT Latitude Longitude Course Direction KTS MPH feet Rate Location/Type
10:01AM 37.7000 -122.2833 83° East 201 231 4,000  Level Northern Cal TRACON
10:02AM 37.9437 -122.3110 80° East  Level FlightAware Approximate
10:03AM 37.9598 -122.1492 84° East  Level FlightAware Approximate
10:03AM 37.7536 -122.2172 44° Northeast 259 298 6,500  Level Oakland Center
10:04AM 37.9699 -121.9871 72° East  Level FlightAware Approximate
10:04AM 37.7794 -122.1300 69° East 263 303 9,400  Level Oakland Center
10:05AM 37.9833 -121.8266 90° East  Level FlightAware Approximate
10:06AM 38.0013 -121.6748 80° East  Level FlightAware Approximate
10:06AM 37.8408 -121.8953 72° East 330 380 14,600  Level Oakland Center
10:07AM 38.0194 -121.5228 83° East  Level FlightAware Approximate
10:07AM 37.8703 -121.7825 72° East 337 388 17,200  Level Oakland Center
10:09AM 37.9328 -121.5389 83° East  Level Estimated
10:11AM 37.9950 -121.3114 74° East 367 422 24,800  Level Oakland Center
10:12AM 38.0272 -121.1861 72° East 372 428 26,200 1,320 Climbing Oakland Center
10:13AM 38.0608 -121.0600 71° East 378 435 27,600 1,500 Climbing Oakland Center
10:14AM 38.0997 -120.9042 72° East 387 445 29,300 1,320 Climbing Oakland Center
10:15AM 38.1306 -120.7736 73° East 389 448 30,300 1,020 Climbing Oakland Center
10:16AM 38.1899 -120.5112 74° East  Level Estimated
10:16AM 38.1631 -120.6392 73° East 396 456 31,400  Level Oakland Center
10:17AM 38.1961 -120.5036 73° East 401 461 32,500 900 Climbing Oakland Center
10:18AM 38.2281 -120.3656 74° East 406 467 33,300 780 Climbing Oakland Center
10:19AM 38.2617 -120.2269 73° East 410 472 34,200 540 Climbing Oakland Center
10:21AM 38.3269 -119.9456 73° East 417 480 35,000 180 Climbing Oakland Center
10:23AM 38.3836 -119.6867 74° East 411 473 35,000  Level Salt Lake Center
10:23AM 38.3914 -119.6667 64° Northeast 410 472 35,000  Level Oakland Center
10:24AM 38.4239 -119.5214 74° East 413 475 35,000  Level Oakland Center
10:25AM 38.4572 -119.3786 73° East 420 483 35,100  Climbing Oakland Center
10:26AM 38.4956 -119.2086 74° East 419 482 35,000 -60 Descending Oakland Center
10:27AM 38.5153 -119.0631 80° East 417 480 35,000  Level Oakland Center
10:28AM 38.5289 -118.9192 83° East 413 475 35,000  Level Oakland Center
10:29AM 38.5433 -118.7769 83° East 407 468 35,000  Level Oakland Center
10:30AM 38.5569 -118.6347 83° East 405 466 35,000  Level Oakland Center
10:31AM 38.5708 -118.4922 83° East 406 467 35,000  Level Oakland Center
10:34AM 38.5894 -118.2698 84° East  Level FlightAware Approximate
10:34AM 38.6122 -118.0494 84° East 408 470 35,000  Level Oakland Center
10:36AM 38.6280 -117.8343 85° East  Level FlightAware Approximate
10:36AM 38.6353 -117.7919 85° East 404 465 35,000  Level Salt Lake Center
10:37AM 38.6475 -117.6464 84° East 408 470 35,000  Level Salt Lake Center
10:38AM 38.6600 -117.5025 84° East 405 466 35,000  Level Salt Lake Center
10:39AM 38.6764 -117.3283 83° East 408 470 35,000  Level Salt Lake Center
10:40AM 38.6958 -117.1844 80° East 410 472 35,000  Level Salt Lake Center
10:41AM 38.7172 -117.0400 79° East 411 473 35,000  Level Oakland Center
10:43AM 38.7401 -116.8777 80° East  Level FlightAware Approximate
10:43AM 38.7594 -116.7494 80° East 413 475 35,000  Level Salt Lake Center
10:44AM 38.7825 -116.6047 78° East 413 475 35,000  Level Salt Lake Center
10:45AM 38.8025 -116.4594 80° East 413 475 35,000  Level Salt Lake Center
10:46AM 38.8239 -116.3144 79° East 413 475 35,000  Level Salt Lake Center
10:47AM 38.8447 -116.1681 80° East 416 479 35,000  Level Salt Lake Center
10:49AM 38.8692 -115.9908 80° East 418 481 35,000  Level Salt Lake Center
10:50AM 38.8903 -115.8425 80° East 420 483 35,000  Level Salt Lake Center
10:52AM 38.9314 -115.5456 80° East 423 487 35,000  Level Salt Lake Center
10:54AM 38.9711 -115.2447 80° East 429 494 35,000  Level Salt Lake Center
10:55AM 38.9917 -115.0950 80° East 427 491 35,000  Level Salt Lake Center
10:57AM 39.0344 -114.7667 80° East 424 488 35,000  Level Salt Lake Center
10:58AM 39.0539 -114.6161 81° East 425 489 35,000  Level Salt Lake Center
11:00AM 39.0928 -114.3158 80° East 424 488 35,000  Level Salt Lake Center
11:01AM 39.1103 -114.1675 81° East 420 483 35,000  Level Salt Lake Center
11:02AM 39.1292 -114.0175 81° East 422 486 35,000  Level Salt Lake Center
11:03AM 39.1506 -113.8386 81° East 421 484 35,000  Level Salt Lake Center
11:05AM 39.1861 -113.5403 81° East 422 486 35,000  Level Salt Lake Center
11:07AM 39.2010 -113.3091 81° East  Level FlightAware Approximate
11:09AM 39.2558 -112.9364 69° East 426 490 35,000  Level Salt Lake Center
11:10AM 39.2758 -112.7533 82° East 428 493 35,000  Level Salt Lake Center
11:11AM 39.2942 -112.6028 81° East 426 490 35,000 -300 Level Salt Lake Center
11:12AM 39.3192 -112.4519 78° East 429 494 34,500  Descending Salt Lake Center
11:13AM 39.3619 -112.3081 69° East 431 496 35,000 240 Climbing Salt Lake Center
11:14AM 39.3664 -112.2508 71° East  Level FlightAware Approximate
11:14AM 39.4028 -112.1656 70° East 427 491 35,000  Level Salt Lake Center
11:15AM 39.4100 -112.1065 69° East  Level FlightAware Approximate
11:16AM 39.4510 -111.9903 70° East  Level FlightAware Approximate
11:17AM 39.5214 -111.7486 70° East 424 488 35,000  Level Denver Center
11:18AM 39.5592 -111.6108 70° East 424 488 35,000  Level Denver Center
11:18AM 39.5722 -111.5686 68° East 421 484 35,000  Level Salt Lake Center
11:19AM 39.6131 -111.4247 70° East 425 489 35,000  Level Salt Lake Center
11:21AM 39.6561 -111.2694 70° East 422 486 35,000  Level Salt Lake Center
11:22AM 39.6953 -111.1322 70° East 424 488 35,000  Level Salt Lake Center
11:23AM 39.7368 -110.9677 70° East  Level FlightAware Approximate
11:23AM 39.7386 -110.9719 71° East 420 483 35,000  Level Salt Lake Center
11:24AM 39.8081 -110.7164 70° East 426 490 35,000  Level Denver Center
11:25AM 39.8444 -110.5778 71° East 426 490 35,000  Level Denver Center
11:26AM 39.8581 -110.5328 68° East 424 488 35,000  Level Salt Lake Center
11:27AM 39.9025 -110.3706 70° East 427 491 35,000  Level Salt Lake Center
11:28AM 39.9403 -110.2294 71° East 430 495 35,000  Level Salt Lake Center
11:29AM 39.9842 -110.0633 71° East 433 498 35,000  Level Salt Lake Center
11:31AM 40.0375 -109.7453 78° East 435 501 35,100  Climbing Salt Lake Center
11:32AM 40.0581 -109.5994 80° East 429 494 35,000 -60 Descending Salt Lake Center
11:33AM 40.0822 -109.4275 80° East 429 494 35,000  Level Salt Lake Center
11:34AM 40.0958 -109.3275 80° East 430 495 35,000  Level Denver Center
11:35AM 40.1167 -109.1786 80° East 433 498 35,000  Level Denver Center
11:36AM 40.1394 -109.0042 80° East 435 501 35,000  Level Denver Center
11:37AM 40.1669 -108.8061 80° East 436 502 35,000  Level Salt Lake Center
11:39AM 40.2028 -108.5311 80° East 432 497 35,000  Level Denver Center
11:41AM 40.2265 -108.3164 82° East  Level FlightAware Approximate
11:41AM 40.2522 -108.1575 82° East 438 504 35,000  Level Salt Lake Center
11:43AM 40.2869 -107.8756 81° East 443 510 35,100  Climbing Denver Center
11:45AM 40.3159 -107.6352 81° East  Level FlightAware Approximate
11:45AM 40.3281 -107.5494 81° East 436 502 35,000  Level Denver Center
11:47AM 40.3550 -107.3191 81° East  Level FlightAware Approximate
11:48AM 40.3856 -107.0708 81° East 440 506 35,000  Level Denver Center
11:50AM 40.4119 -106.8561 81° East  Level Estimated
11:51AM 40.4453 -106.5644 81° East 449 517 35,000  Level Denver Center
11:52AM 40.4639 -106.4003 81° East 452 520 35,000  Level Denver Center
11:53AM 40.4836 -106.2161 82° East 455 524 35,000 -60 Level Denver Center
11:54AM 40.4757 -106.2297 81° East  Level FlightAware Approximate
11:55AM 40.5024 -106.0261 83° East  Level FlightAware Approximate
11:57AM 40.5394 -105.7670 81° East  Level Estimated
11:57AM 40.5550 -105.5519 81° East 447 514 34,900  Level Denver Center
11:58AM 40.5719 -105.3867 82° East 447 514 35,000  Climbing Denver Center
12:00PM 40.5897 -105.2228 82° East  Level Estimated
12:01PM 40.6053 -105.0561 82° East 451 519 35,000  Level Denver Center
12:02PM 40.6112 -104.9325 81° East  Level FlightAware Approximate
12:03PM 40.6295 -104.7766 81° East  Level FlightAware Approximate
12:03PM 40.6389 -104.7267 82° East 450 518 35,000  Level Denver Center
12:04PM 40.6575 -104.5303 83° East 456 525 35,000  Level Denver Center
12:05PM 40.6731 -104.3631 83° East 455 524 35,000  Level Denver Center
12:07PM 40.7039 -104.0300 83° East 449 517 35,000  Level Denver Center
12:08PM 40.7189 -103.8628 83° East 454 522 35,000  Level Denver Center
12:09PM 40.7342 -103.6964 83° East 455 524 35,000  Level Denver Center
12:11PM 40.7569 -103.4294 84° East  Level FlightAware Approximate
12:12PM 40.7800 -103.1633 84° East 460 529 35,000  Level Denver Center
12:13PM 40.7939 -102.9942 84° East 461 531 35,000  Level Denver Center
12:14PM 40.8064 -102.8411 84° East 463 533 35,000  Level Denver Center
12:15PM 40.8211 -102.6528 84° East 462 532 35,000  Level Denver Center
12:17PM 40.8388 -102.4165 84° East  Level FlightAware Approximate
12:17PM 40.8481 -102.3014 84° East 463 533 35,000  Level Denver Center
12:18PM 40.8614 -102.1386 84° East 465 535 35,000  Level Denver Center
12:19PM 40.8753 -101.9472 84° East 469 540 35,000  Level Denver Center
12:20PM 40.8858 -101.7828 85° East 469 540 35,000  Level Denver Center
12:21PM 40.8997 -101.5925 84° East 467 537 35,000  Level Denver Center
12:23PM 40.9111 -101.3871 86° East  Level FlightAware Approximate
12:23PM 40.9242 -101.2356 86° East 470 541 35,000  Level Denver Center
12:24PM 40.9350 -101.0703 85° East 470 541 35,000  Level Denver Center
12:25PM 40.9461 -100.9047 85° East 468 539 35,000  Level Denver Center
12:26PM 40.9586 -100.7064 85° East 472 543 35,000  Level Denver Center
12:27PM 40.9694 -100.5364 85° East 476 548 35,000  Level Denver Center
12:28PM 40.9811 -100.3403 85° East 477 549 35,000  Level Denver Center
12:31PM 41.0064 -99.9192 85° East 473 544 35,000  Level Minneapolis Center
12:32PM 41.0122 -99.8156 86° East 472 543 35,000  Level Denver Center
12:34PM 41.0344 -99.4683 85° East 472 543 35,000  Level Denver Center
12:36PM 41.0569 -99.0964 85° East 474 545 35,000  Level Denver Center
12:36PM 41.0592 -99.0558 86° East 473 544 35,000  Level Minneapolis Center
12:37PM 41.0706 -98.8486 86° East 472 543 35,000  Level Minneapolis Center
12:39PM 41.0861 -98.5797 86° East 472 543 35,000  Level Denver Center
12:40PM 41.0989 -98.3411 86° East 468 539 35,000  Level Minneapolis Center
12:41PM 41.1092 -98.1364 86° East 465 535 35,000  Level Minneapolis Center
12:42PM 41.1178 -97.9681 86° East 461 531 35,000  Level Minneapolis Center
12:43PM 41.1256 -97.7989 86° East 460 529 35,000  Level Minneapolis Center
12:45PM 41.1334 -97.6058 87° East  Level FlightAware Approximate
12:46PM 41.1494 -97.2792 87° East 463 533 35,100  Level Minneapolis Center
12:47PM 41.1564 -97.1133 87° East 455 524 35,000 -60 Descending Minneapolis Center
12:49PM 41.1626 -96.9412 87° East  Level Estimated
12:51PM 41.1778 -96.5822 87° East 451 519 35,000  Level Minneapolis Center
12:52PM 41.1722 -96.4937 87° East  Level FlightAware Approximate
12:52PM 41.1847 -96.4183 87° East 449 517 35,000  Level Minneapolis Center
12:53PM 41.1903 -96.2589 87° East 450 518 35,000  Level Minneapolis Center
12:54PM 41.1950 -96.0953 88° East 446 513 35,000  Level Minneapolis Center
12:55PM 41.1994 -95.8997 88° East 443 510 35,000  Level Minneapolis Center
12:56PM 41.1964 -95.8285 87° East  Level Estimated
12:56PM 41.2017 -95.7344 89° East 446 513 35,000  Level Minneapolis Center
12:57PM 41.2044 -95.5781 89° East 442 509 35,000  Level Minneapolis Center
12:59PM 41.2083 -95.2943 89° East  Level FlightAware Approximate
12:59PM 41.2114 -95.2594 89° East 434 499 35,000  Level Minneapolis Center
01:01PM 41.2139 -94.9862 89° East  Level FlightAware Approximate
01:01PM 41.2147 -94.9119 89° East 429 494 35,000  Level Minneapolis Center
01:02PM 41.2161 -94.7544 89° East 427 491 35,000  Level Minneapolis Center
01:03PM 41.2183 -94.5967 89° East 427 491 35,000  Level Minneapolis Center
01:04PM 41.2192 -94.4369 90° East 431 496 35,000  Level Minneapolis Center
01:05PM 41.2208 -94.2778 89° East 433 498 35,100  Climbing Minneapolis Center
01:06PM 41.2217 -94.0981 90° East 427 491 35,000 -60 Descending Minneapolis Center
01:08PM 41.2225 -93.7881 90° East 422 486 35,000  Level Minneapolis Center
01:09PM 41.2236 -93.6344 89° East 420 483 35,000  Level Minneapolis Center
01:10PM 41.2242 -93.4803 90° East 420 483 35,000  Level Minneapolis Center
01:12PM 41.2247 -93.1394 90° East 421 484 35,000  Level Minneapolis Center
01:14PM 41.2224 -92.9421 91° East  Level FlightAware Approximate
01:15PM 41.2214 -92.6747 91° East 421 484 35,000  Level Minneapolis Center
01:17PM 41.2203 -92.4578 90° East 416 479 35,000  Level Chicago Center
01:18PM 41.2189 -92.3044 91° East 417 480 35,000  Level Chicago Center
01:19PM 41.2164 -92.1217 91° East 414 476 35,000  Level Chicago Center
01:20PM 41.2150 -91.9706 91° East 413 475 35,000  Level Chicago Center
01:21PM 41.2034 -91.8518 91° East  Level FlightAware Approximate
01:22PM 41.2108 -91.6803 91° East 410 472 35,000  Level Minneapolis Center
01:23PM 41.2086 -91.5133 91° East 407 468 35,000  Level Chicago Center
01:24PM 41.2053 -91.3664 92° East 400 460 35,000  Level Chicago Center
01:25PM 41.2028 -91.2172 91° East 404 465 35,000  Level Chicago Center
01:27PM 41.1981 -90.9837 91° East  Level FlightAware Approximate
01:27PM 41.1967 -90.8944 91° East 397 457 35,000  Level Chicago Center
01:28PM 41.1933 -90.7486 92° East 396 456 35,000  Level Chicago Center
01:30PM 41.1835 -90.5299 90° East  Level FlightAware Approximate
01:30PM 41.1867 -90.4572 90° East 393 452 35,000  Level Chicago Center
01:32PM 41.1787 -90.2487 93° East  Level FlightAware Approximate
01:33PM 41.1736 -89.9906 90° East 395 455 35,000  Level Chicago Center
01:35PM 41.1690 -89.8003 92° East  Level Estimated
01:35PM 41.1636 -89.6986 92° East 395 455 35,000  Level Chicago Center
01:36PM 41.1600 -89.5531 92° East 394 453 35,000  Level Chicago Center
01:38PM 41.1574 -89.3784 91° East  Level FlightAware Approximate
01:38PM 41.1617 -89.2611 91° East 394 453 35,000  Level Chicago Center
01:39PM 41.1504 -89.1546 90° East  Level FlightAware Approximate
01:40PM 41.1556 -89.0970 93° East  Level FlightAware Approximate
01:41PM 41.1600 -88.9417 93° East 391 450 35,000  Level Chicago Center
01:43PM 41.1579 -88.6314 90° East  Level FlightAware Approximate
01:44PM 41.1597 -88.5103 90° East 393 452 35,000  Level Chicago Center
01:45PM 41.1594 -88.3678 90° East 391 450 35,000  Level Chicago Center
01:46PM 41.1586 -88.1967 90° East 393 452 35,000  Level Chicago Center
01:47PM 41.1581 -88.0550 90° East 392 451 35,000  Level Chicago Center
01:48PM 41.1556 -87.9119 91° East 394 453 35,000  Level Chicago Center
01:49PM 41.1544 -87.7683 91° East 396 456 35,000  Level Chicago Center
01:50PM 41.1533 -87.5961 90° East 394 453 35,000  Level Chicago Center
01:51PM 41.1514 -87.4522 91° East 396 456 35,000  Level Chicago Center
01:52PM 41.1483 -87.3089 92° East 392 451 35,000  Level Chicago Center
01:53PM 41.1469 -87.1647 91° East 394 453 35,000  Level Chicago Center
01:55PM 41.1326 -86.9242 91° East  Level FlightAware Approximate
01:56PM 41.1383 -86.7125 91° East 387 445 35,000  Level Chicago Center
01:58PM 41.1249 -86.4900 94° East  Level Estimated
01:58PM 41.1317 -86.4233 94° East 393 452 35,000  Level Chicago Center
01:59PM 41.1292 -86.2808 91° East 391 450 35,000  Level Chicago Center
02:01PM 41.1238 -86.0732 92° East  Level FlightAware Approximate
02:01PM 41.1208 -85.9653 92° East 392 451 35,000  Level Chicago Center
02:02PM 41.1172 -85.8470 91° East  Level FlightAware Approximate
02:03PM 41.1147 -85.7679 93° East  Level FlightAware Approximate
02:03PM 41.1117 -85.6786 93° East 392 451 35,000  Level Chicago Center
02:05PM 41.1031 -85.3647 92° East 388 447 35,000  Level Chicago Center
02:06PM 41.0981 -85.2231 93° East 391 450 35,000  Level Chicago Center
02:07PM 41.0936 -85.0822 92° East 388 447 35,000  Level Chicago Center
02:09PM 41.0821 -84.9163 95° East  Level FlightAware Approximate
02:09PM 41.0836 -84.8058 95° East 380 437 35,000  Level Chicago Center
02:11PM 41.0758 -84.6133 93° East 385 443 35,000  Level Cleveland Center
02:12PM 41.0703 -84.4753 93° East 385 443 35,000  Level Cleveland Center
02:14PM 41.0606 -84.1936 93° East 385 443 35,000  Level Cleveland Center
02:16PM 41.0489 -83.9386 93° East 381 438 35,000  Level Chicago Center
02:17PM 41.0425 -83.7689 93° East 386 444 35,000  Level Chicago Center
02:18PM 41.0356 -83.6292 94° East 385 443 35,000  Level Chicago Center
02:19PM 41.0303 -83.5036 93° East 385 443 35,000  Level Cleveland Center
02:20PM 41.0236 -83.3603 93° East 390 449 35,000  Level Cleveland Center
02:21PM 41.0167 -83.2086 93° East 385 443 35,000  Level Cleveland Center
02:22PM 41.0053 -83.0650 96° East 385 443 35,000  Level Cleveland Center
02:23PM 40.9981 -82.9217 94° East 385 443 35,000  Level Cleveland Center
02:24PM 40.9903 -82.7839 94° East 385 443 35,000  Level Cleveland Center
02:25PM 40.9825 -82.6406 94° East 385 443 35,000  Level Cleveland Center
02:26PM 40.9744 -82.5000 94° East 385 443 35,000  Level Cleveland Center
02:27PM 40.9686 -82.3542 93° East 385 443 35,000  Level Cleveland Center
02:29PM 40.9522 -82.0890 95° East  Level FlightAware Approximate
02:30PM 40.9411 -81.9244 95° East 391 450 35,000  Level Cleveland Center
02:31PM 40.9344 -81.7814 93° East 386 444 35,000  Level Cleveland Center
02:32PM 40.9233 -81.6383 96° East 386 444 35,000  Level Cleveland Center
02:33PM 40.9142 -81.4925 95° East 391 450 35,000  Level Cleveland Center
02:34PM 40.9047 -81.3469 95° East 391 450 35,000  Level Cleveland Center
02:36PM 40.8875 -81.0719 95° East 391 450 35,000  Level Cleveland Center
02:37PM 40.8797 -80.9292 94° East 391 450 35,000  Level Cleveland Center
02:39PM 40.8540 -80.6580 97° East  Level FlightAware Approximate
02:41PM 40.8342 -80.3472 117° Southeast 399 459 35,000  Level Cleveland Center
02:43PM 40.7728 -80.0706 106° East 392 451 35,000  Level Cleveland Center
02:44PM 40.7178 -79.9256 117° Southeast 392 451 35,000  Level Cleveland Center
02:46PM 40.6230 -79.6563 117° Southeast  Level FlightAware Approximate
02:46PM 40.6309 -79.6771 117° Southeast  Level FlightAware Approximate
02:47PM 40.4822 -79.6306 92° East 392 451 35,000  Level Cleveland Center
02:48PM 40.3981 -79.5389 140° Southeast 392 451 35,000  Level Cleveland Center
02:49PM 40.3117 -79.4506 142° Southeast 397 457 35,000  Level Cleveland Center
02:51PM 40.2156 -79.2264 119° Southeast 371 427 35,000 -720 Level Cleveland Center
02:53PM 40.3127 -78.7126 92° East  Level FlightAware Approximate
02:53PM 40.1969 -78.9591 95° East  Level Estimated
02:54PM 40.2589 -78.7547 95° East 409 471 31,500  Level Cleveland Center
02:56PM 40.2856 -78.3414 85° East 444 511 27,500 -1,320 Descending New York Center
02:58PM 40.2650 -78.0397 95° East 417 480 25,500 -900 Descending New York Center
02:59PM 40.2550 -77.8944 95° East 411 473 25,000 -300 Descending New York Center
03:00PM 40.2431 -77.7464 96° East 411 473 25,000  Level New York Center
03:01PM 40.2328 -77.6011 95° East 406 467 25,000 -1,020 Level New York Center
03:02PM 40.2225 -77.4533 95° East 406 467 23,000 -2,220 Descending New York Center
03:03PM 40.2094 -77.3108 97° East 406 467 20,500 -1,440 Descending New York Center
03:06PM 40.2862 -77.0207 111° Southeast  Level FlightAware Approximate
03:07PM 40.1628 -76.7383 99° East 390 449 15,800  Level New York Center
03:09PM 40.1332 -76.5806 104° East  Level Estimated
03:10PM 40.1322 -76.3394 104° East 364 419 11,400  Level New York Center
03:11PM 40.1194 -76.2108 97° East 358 412 11,000 -240 Descending New York Center
03:12PM 40.1100 -76.0958 96° East 358 412 11,000 -660 Level New York Center
03:13PM 40.0927 -76.0077 99° East  Level FlightAware Approximate
03:14PM 40.1000 -75.9167 94° East 273 314 9,400  Level Philadelphia TRACON
03:15PM 40.0350 -75.8083 128° Southeast 252 290 7,100 -900 Descending New York Center
03:16PM 39.9369 -75.5646 104° East  Level Estimated
03:18PM 39.9693 -75.5778 96° East  Level Estimated
03:18PM 39.8833 -75.6833 96° East 237 273 6,000  Level Philadelphia TRACON
03:18PM 39.8700 -75.6692 141° Southeast 235 270 5,400 -1,920 Descending New York Center
03:19PM 39.8292 -75.5961 126° Southeast 229 264 3,200 -1,680 Descending New York Center
03:20PM 39.8333 -75.5500 83° East 217 250 3,000 -420 Descending Philadelphia TRACON
03:22PM 39.8333 -75.4167 90° East 157 181 2,200 -540 Descending Philadelphia TRACON
03:23PM 39.8500 -75.3667 67° East 150 173 1,400 -540 Descending Philadelphia TRACON
03:25PM 39.8658 -75.2522 80° East 130 150 400 -420 Descending New York Center